sensor_id;sensor_type;location;lat;lon;timestamp;pressure;altitude;pressure_sealevel;temperature;humidity
12213;BME280;6169;44.158;22.788;2023-03-01T00:02:45;102163.06;;;7.28;68.15
12213;BME280;6169;44.158;22.788;2023-03-01T00:07:47;102156.13;;;7.03;68.83
12213;BME280;6169;44.158;22.788;2023-03-01T00:12:50;102152.22;;;7.05;68.95
12213;BME280;6169;44.158;22.788;2023-03-01T00:17:54;102149.69;;;6.64;70.91
12213;BME280;6169;44.158;22.788;2023-03-01T00:22:56;102146.38;;;7.25;68.72
12213;BME280;6169;44.158;22.788;2023-03-01T00:27:58;102146.41;;;7.40;68.12
12213;BME280;6169;44.158;22.788;2023-03-01T00:33:02;102138.66;;;7.37;68.25
12213;BME280;6169;44.158;22.788;2023-03-01T00:38:05;102130.25;;;7.08;69.33
12213;BME280;6169;44.158;22.788;2023-03-01T00:43:08;102121.66;;;7.28;68.88
12213;BME280;6169;44.158;22.788;2023-03-01T00:48:12;102112.50;;;7.29;68.65
12213;BME280;6169;44.158;22.788;2023-03-01T00:53:14;102113.28;;;7.15;68.96
12213;BME280;6169;44.158;22.788;2023-03-01T00:58:17;102110.34;;;6.62;70.92
12213;BME280;6169;44.158;22.788;2023-03-01T01:03:21;102101.25;;;7.17;69.03
12213;BME280;6169;44.158;22.788;2023-03-01T01:08:25;102091.81;;;7.13;68.27
12213;BME280;6169;44.158;22.788;2023-03-01T01:13:27;102090.16;;;6.81;70.35
12213;BME280;6169;44.158;22.788;2023-03-01T01:18:31;102093.31;;;7.16;69.15
12213;BME280;6169;44.158;22.788;2023-03-01T01:23:34;102086.81;;;7.02;69.83
12213;BME280;6169;44.158;22.788;2023-03-01T01:28:36;102062.69;;;7.00;69.59
12213;BME280;6169;44.158;22.788;2023-03-01T01:33:41;102069.97;;;7.00;69.33
12213;BME280;6169;44.158;22.788;2023-03-01T01:38:43;102075.91;;;7.18;69.44
12213;BME280;6169;44.158;22.788;2023-03-01T01:43:47;102063.03;;;7.20;69.72
12213;BME280;6169;44.158;22.788;2023-03-01T01:48:54;102062.94;;;7.14;68.93
12213;BME280;6169;44.158;22.788;2023-03-01T01:54:00;102053.59;;;7.16;69.43
12213;BME280;6169;44.158;22.788;2023-03-01T01:59:03;102056.50;;;6.92;68.89
12213;BME280;6169;44.158;22.788;2023-03-01T02:04:07;102054.25;;;7.18;69.25
12213;BME280;6169;44.158;22.788;2023-03-01T02:09:12;102054.97;;;7.12;69.26
12213;BME280;6169;44.158;22.788;2023-03-01T02:14:16;102056.22;;;7.47;67.50
12213;BME280;6169;44.158;22.788;2023-03-01T02:19:30;102048.88;;;7.33;68.29
12213;BME280;6169;44.158;22.788;2023-03-01T02:24:44;102045.72;;;7.67;67.26
12213;BME280;6169;44.158;22.788;2023-03-01T02:29:52;102039.72;;;6.96;69.61
12213;BME280;6169;44.158;22.788;2023-03-01T02:34:55;102041.16;;;7.07;69.61
12213;BME280;6169;44.158;22.788;2023-03-01T02:39:59;102037.78;;;7.05;68.86
12213;BME280;6169;44.158;22.788;2023-03-01T02:45:06;102037.06;;;7.34;68.53
12213;BME280;6169;44.158;22.788;2023-03-01T02:50:25;102046.97;;;7.42;67.73
12213;BME280;6169;44.158;22.788;2023-03-01T02:55:37;102045.31;;;7.18;68.88
12213;BME280;6169;44.158;22.788;2023-03-01T03:00:42;102041.72;;;7.40;67.33
12213;BME280;6169;44.158;22.788;2023-03-01T03:05:47;102036.25;;;7.63;66.53
12213;BME280;6169;44.158;22.788;2023-03-01T03:10:50;102034.97;;;7.59;67.10
12213;BME280;6169;44.158;22.788;2023-03-01T03:15:54;102033.78;;;7.39;67.14
12213;BME280;6169;44.158;22.788;2023-03-01T03:20:57;102032.44;;;7.57;67.44
12213;BME280;6169;44.158;22.788;2023-03-01T03:25:59;102027.84;;;7.58;68.12
12213;BME280;6169;44.158;22.788;2023-03-01T03:31:06;101867.78;;;7.02;66.09
12213;BME280;6169;44.158;22.788;2023-03-01T03:36:08;102027.94;;;7.50;66.79
12213;BME280;6169;44.158;22.788;2023-03-01T03:41:13;102024.53;;;7.33;67.54
12213;BME280;6169;44.158;22.788;2023-03-01T03:46:17;102025.41;;;7.33;67.79
12213;BME280;6169;44.158;22.788;2023-03-01T03:51:19;102020.69;;;7.27;68.09
12213;BME280;6169;44.158;22.788;2023-03-01T03:56:23;102029.06;;;7.18;68.19
12213;BME280;6169;44.158;22.788;2023-03-01T04:01:28;102022.72;;;7.48;68.08
12213;BME280;6169;44.158;22.788;2023-03-01T04:06:31;102020.34;;;7.07;68.80
12213;BME280;6169;44.158;22.788;2023-03-01T04:11:33;102026.31;;;7.26;68.77
12213;BME280;6169;44.158;22.788;2023-03-01T04:16:37;102022.13;;;7.38;68.58
12213;BME280;6169;44.158;22.788;2023-03-01T04:21:39;102021.28;;;7.38;67.61
12213;BME280;6169;44.158;22.788;2023-03-01T04:26:41;102017.75;;;7.52;67.15
12213;BME280;6169;44.158;22.788;2023-03-01T04:31:45;102022.56;;;7.27;68.76
12213;BME280;6169;44.158;22.788;2023-03-01T04:36:48;102021.56;;;7.05;68.90
12213;BME280;6169;44.158;22.788;2023-03-01T04:41:50;102022.81;;;7.55;68.16
12213;BME280;6169;44.158;22.788;2023-03-01T04:46:54;102015.13;;;7.44;68.56
12213;BME280;6169;44.158;22.788;2023-03-01T04:51:57;102015.94;;;7.29;67.62
12213;BME280;6169;44.158;22.788;2023-03-01T04:57:03;102017.53;;;7.76;66.67
12213;BME280;6169;44.158;22.788;2023-03-01T05:02:06;102013.78;;;7.63;66.57
12213;BME280;6169;44.158;22.788;2023-03-01T05:07:09;102017.84;;;7.06;67.79
12213;BME280;6169;44.158;22.788;2023-03-01T05:12:13;102019.09;;;7.86;65.86
12213;BME280;6169;44.158;22.788;2023-03-01T05:17:17;102019.31;;;7.84;66.03
12213;BME280;6169;44.158;22.788;2023-03-01T05:22:19;102029.41;;;7.00;68.89
12213;BME280;6169;44.158;22.788;2023-03-01T05:27:22;102034.09;;;7.44;67.67
12213;BME280;6169;44.158;22.788;2023-03-01T05:32:27;102031.88;;;7.77;66.51
12213;BME280;6169;44.158;22.788;2023-03-01T05:37:32;102030.22;;;7.76;66.41
12213;BME280;6169;44.158;22.788;2023-03-01T05:42:36;102027.84;;;7.05;68.35
12213;BME280;6169;44.158;22.788;2023-03-01T05:47:41;102037.84;;;7.72;67.03
12213;BME280;6169;44.158;22.788;2023-03-01T05:52:45;102037.97;;;7.64;66.29
12213;BME280;6169;44.158;22.788;2023-03-01T05:57:47;102012.44;;;7.06;68.28
12213;BME280;6169;44.158;22.788;2023-03-01T06:02:53;102034.59;;;7.62;66.71
12213;BME280;6169;44.158;22.788;2023-03-01T06:07:58;102026.63;;;7.46;67.42
12213;BME280;6169;44.158;22.788;2023-03-01T06:13:01;102035.25;;;7.26;68.86
12213;BME280;6169;44.158;22.788;2023-03-01T06:18:05;102030.06;;;7.40;68.44
12213;BME280;6169;44.158;22.788;2023-03-01T06:23:07;102038.88;;;7.56;67.74
12213;BME280;6169;44.158;22.788;2023-03-01T06:28:09;102040.56;;;7.72;66.99
12213;BME280;6169;44.158;22.788;2023-03-01T06:33:13;102052.78;;;6.84;69.63
12213;BME280;6169;44.158;22.788;2023-03-01T06:38:16;102051.28;;;7.66;66.96
12213;BME280;6169;44.158;22.788;2023-03-01T06:43:19;102027.59;;;7.53;67.11
12213;BME280;6169;44.158;22.788;2023-03-01T06:48:23;102040.97;;;7.84;66.37
12213;BME280;6169;44.158;22.788;2023-03-01T06:53:25;102050.72;;;7.55;66.79
12213;BME280;6169;44.158;22.788;2023-03-01T06:58:28;102052.66;;;7.47;68.77
12213;BME280;6169;44.158;22.788;2023-03-01T07:03:32;102058.97;;;7.77;66.35
12213;BME280;6169;44.158;22.788;2023-03-01T07:08:34;102056.25;;;7.62;67.39
12213;BME280;6169;44.158;22.788;2023-03-01T07:13:36;102058.41;;;7.06;69.07
12213;BME280;6169;44.158;22.788;2023-03-01T07:18:40;102047.97;;;7.41;68.09
12213;BME280;6169;44.158;22.788;2023-03-01T07:23:43;102060.97;;;7.45;67.27
12213;BME280;6169;44.158;22.788;2023-03-01T07:28:45;102065.22;;;7.77;66.76
12213;BME280;6169;44.158;22.788;2023-03-01T07:33:49;102051.50;;;7.79;66.82
12213;BME280;6169;44.158;22.788;2023-03-01T07:38:51;102056.81;;;7.34;68.64
12213;BME280;6169;44.158;22.788;2023-03-01T07:43:54;102043.69;;;6.85;70.07
12213;BME280;6169;44.158;22.788;2023-03-01T07:48:57;102041.06;;;7.00;69.66
12213;BME280;6169;44.158;22.788;2023-03-01T07:54:00;102043.72;;;7.23;70.41
12213;BME280;6169;44.158;22.788;2023-03-01T07:59:02;102050.03;;;7.16;69.41
12213;BME280;6169;44.158;22.788;2023-03-01T08:04:07;102049.78;;;6.48;72.64
12213;BME280;6169;44.158;22.788;2023-03-01T08:09:09;102051.59;;;6.56;72.27
12213;BME280;6169;44.158;22.788;2023-03-01T08:14:11;102052.44;;;7.10;70.73
12213;BME280;6169;44.158;22.788;2023-03-01T08:19:15;102044.59;;;7.01;71.61
12213;BME280;6169;44.158;22.788;2023-03-01T08:24:18;102052.91;;;7.37;70.53
12213;BME280;6169;44.158;22.788;2023-03-01T08:29:20;102041.06;;;6.38;72.80
12213;BME280;6169;44.158;22.788;2023-03-01T08:34:24;102043.72;;;6.77;71.25
12213;BME280;6169;44.158;22.788;2023-03-01T08:39:26;102040.44;;;6.59;72.53
12213;BME280;6169;44.158;22.788;2023-03-01T08:44:29;102044.16;;;7.12;71.27
12213;BME280;6169;44.158;22.788;2023-03-01T08:49:33;102040.06;;;7.39;70.61
12213;BME280;6169;44.158;22.788;2023-03-01T08:54:35;102036.66;;;7.22;70.34
12213;BME280;6169;44.158;22.788;2023-03-01T08:59:38;102041.59;;;7.86;67.83
12213;BME280;6169;44.158;22.788;2023-03-01T09:04:43;102034.81;;;7.38;70.07
12213;BME280;6169;44.158;22.788;2023-03-01T09:09:45;102036.47;;;7.24;70.19
12213;BME280;6169;44.158;22.788;2023-03-01T09:14:47;102019.38;;;7.23;71.07
12213;BME280;6169;44.158;22.788;2023-03-01T09:19:51;102029.47;;;7.29;71.38
12213;BME280;6169;44.158;22.788;2023-03-01T09:24:54;102026.63;;;7.46;70.80
12213;BME280;6169;44.158;22.788;2023-03-01T09:29:57;102028.50;;;7.45;70.51
12213;BME280;6169;44.158;22.788;2023-03-01T09:35:00;102026.47;;;6.78;72.61
12213;BME280;6169;44.158;22.788;2023-03-01T09:40:08;102019.78;;;6.97;71.44
12213;BME280;6169;44.158;22.788;2023-03-01T09:45:23;102011.91;;;7.93;69.29
12213;BME280;6169;44.158;22.788;2023-03-01T09:50:33;102017.66;;;7.45;70.51
12213;BME280;6169;44.158;22.788;2023-03-01T09:55:40;101951.03;;;7.29;68.93
12213;BME280;6169;44.158;22.788;2023-03-01T10:00:47;102009.00;;;7.12;70.45
12213;BME280;6169;44.158;22.788;2023-03-01T10:05:57;102007.16;;;7.27;69.86
12213;BME280;6169;44.158;22.788;2023-03-01T10:11:02;102008.56;;;7.23;70.46
12213;BME280;6169;44.158;22.788;2023-03-01T10:16:11;101996.13;;;7.52;69.74
12213;BME280;6169;44.158;22.788;2023-03-01T10:21:19;101989.41;;;7.48;69.44
12213;BME280;6169;44.158;22.788;2023-03-01T10:26:36;101989.22;;;7.94;68.39
12213;BME280;6169;44.158;22.788;2023-03-01T10:31:43;101978.88;;;7.68;69.46
12213;BME280;6169;44.158;22.788;2023-03-01T10:36:50;101985.47;;;7.95;68.63
12213;BME280;6169;44.158;22.788;2023-03-01T10:41:56;101976.25;;;8.04;66.14
12213;BME280;6169;44.158;22.788;2023-03-01T10:47:00;101971.31;;;7.63;68.43
12213;BME280;6169;44.158;22.788;2023-03-01T10:52:18;101966.47;;;7.73;68.90
12213;BME280;6169;44.158;22.788;2023-03-01T10:57:30;101946.06;;;8.07;66.40
12213;BME280;6169;44.158;22.788;2023-03-01T11:02:33;101943.00;;;7.95;67.09
12213;BME280;6169;44.158;22.788;2023-03-01T11:07:47;101940.94;;;7.97;66.84
12213;BME280;6169;44.158;22.788;2023-03-01T11:12:51;101935.69;;;8.11;66.16
12213;BME280;6169;44.158;22.788;2023-03-01T11:17:54;101931.09;;;8.11;66.13
12213;BME280;6169;44.158;22.788;2023-03-01T11:23:01;101929.09;;;7.84;66.36
12213;BME280;6169;44.158;22.788;2023-03-01T11:28:06;101911.66;;;7.71;65.67
12213;BME280;6169;44.158;22.788;2023-03-01T11:33:17;101917.53;;;7.75;65.83
12213;BME280;6169;44.158;22.788;2023-03-01T11:38:25;101904.84;;;8.48;65.31
12213;BME280;6169;44.158;22.788;2023-03-01T11:43:33;101904.50;;;8.00;65.04
12213;BME280;6169;44.158;22.788;2023-03-01T11:48:50;101900.25;;;8.49;63.58
12213;BME280;6169;44.158;22.788;2023-03-01T11:54:04;101900.78;;;8.80;62.23
12213;BME280;6169;44.158;22.788;2023-03-01T11:59:25;101900.41;;;8.62;63.60
12213;BME280;6169;44.158;22.788;2023-03-01T12:04:53;101896.59;;;8.56;62.83
12213;BME280;6169;44.158;22.788;2023-03-01T12:10:25;101907.88;;;8.81;61.97
12213;BME280;6169;44.158;22.788;2023-03-01T12:15:56;101896.59;;;8.35;63.05
12213;BME280;6169;44.158;22.788;2023-03-01T12:21:12;101885.44;;;8.66;62.81
12213;BME280;6169;44.158;22.788;2023-03-01T12:26:26;101895.63;;;8.64;63.23
12213;BME280;6169;44.158;22.788;2023-03-01T12:31:47;101889.94;;;8.80;62.29
12213;BME280;6169;44.158;22.788;2023-03-01T12:42:31;101855.34;;;8.18;62.91
12213;BME280;6169;44.158;22.788;2023-03-01T12:48:01;101852.16;;;7.93;64.79
12213;BME280;6169;44.158;22.788;2023-03-01T12:53:14;101846.25;;;7.89;65.29
12213;BME280;6169;44.158;22.788;2023-03-01T12:58:26;101851.16;;;8.58;64.32
12213;BME280;6169;44.158;22.788;2023-03-01T13:03:38;101850.50;;;8.78;62.84
12213;BME280;6169;44.158;22.788;2023-03-01T13:08:49;101848.31;;;8.66;61.98
12213;BME280;6169;44.158;22.788;2023-03-01T13:19:59;101840.59;;;8.98;62.56
12213;BME280;6169;44.158;22.788;2023-03-01T13:25:03;101838.25;;;8.60;63.35
12213;BME280;6169;44.158;22.788;2023-03-01T13:30:42;101846.28;;;8.75;63.34
12213;BME280;6169;44.158;22.788;2023-03-01T13:35:44;101840.06;;;8.81;63.64
12213;BME280;6169;44.158;22.788;2023-03-01T13:41:00;101828.50;;;8.66;64.66
12213;BME280;6169;44.158;22.788;2023-03-01T13:46:09;101812.88;;;8.25;64.65
12213;BME280;6169;44.158;22.788;2023-03-01T13:51:12;101809.56;;;8.73;63.61
12213;BME280;6169;44.158;22.788;2023-03-01T13:56:17;101812.97;;;8.32;65.44
12213;BME280;6169;44.158;22.788;2023-03-01T14:01:25;101804.19;;;8.79;63.60
12213;BME280;6169;44.158;22.788;2023-03-01T14:06:29;101803.63;;;8.90;62.29
12213;BME280;6169;44.158;22.788;2023-03-01T14:17:09;101798.56;;;8.81;62.33
12213;BME280;6169;44.158;22.788;2023-03-01T14:22:18;101794.19;;;8.80;62.84
12213;BME280;6169;44.158;22.788;2023-03-01T14:27:23;101785.25;;;8.86;62.15
12213;BME280;6169;44.158;22.788;2023-03-01T14:32:31;101782.75;;;8.56;63.46
12213;BME280;6169;44.158;22.788;2023-03-01T14:37:34;101791.47;;;8.80;63.16
12213;BME280;6169;44.158;22.788;2023-03-01T14:42:37;101787.28;;;8.77;62.39
12213;BME280;6169;44.158;22.788;2023-03-01T14:47:41;101757.81;;;8.67;61.28
12213;BME280;6169;44.158;22.788;2023-03-01T14:52:46;101793.84;;;8.96;61.95
12213;BME280;6169;44.158;22.788;2023-03-01T14:57:50;101784.59;;;8.84;62.43
12213;BME280;6169;44.158;22.788;2023-03-01T15:02:56;101778.22;;;8.63;63.35
12213;BME280;6169;44.158;22.788;2023-03-01T15:08:00;101777.28;;;8.50;63.78
12213;BME280;6169;44.158;22.788;2023-03-01T15:13:13;101769.81;;;8.52;63.34
12213;BME280;6169;44.158;22.788;2023-03-01T15:18:19;101769.78;;;8.80;61.90
12213;BME280;6169;44.158;22.788;2023-03-01T15:23:25;101722.66;;;8.81;62.47
12213;BME280;6169;44.158;22.788;2023-03-01T15:28:29;101754.81;;;8.90;61.37
12213;BME280;6169;44.158;22.788;2023-03-01T15:33:35;101759.66;;;9.02;61.98
12213;BME280;6169;44.158;22.788;2023-03-01T15:38:52;101762.19;;;9.03;61.81
12213;BME280;6169;44.158;22.788;2023-03-01T15:43:55;101749.50;;;8.76;62.85
12213;BME280;6169;44.158;22.788;2023-03-01T15:49:00;101708.75;;;8.28;62.24
12213;BME280;6169;44.158;22.788;2023-03-01T15:54:06;101764.94;;;8.75;62.60
12213;BME280;6169;44.158;22.788;2023-03-01T15:59:13;101763.28;;;8.46;62.95
12213;BME280;6169;44.158;22.788;2023-03-01T16:04:18;101762.41;;;8.74;62.13
12213;BME280;6169;44.158;22.788;2023-03-01T16:09:23;101765.81;;;8.82;62.43
12213;BME280;6169;44.158;22.788;2023-03-01T16:14:26;101759.41;;;8.55;63.53
12213;BME280;6169;44.158;22.788;2023-03-01T16:19:29;101772.81;;;8.63;62.46
12213;BME280;6169;44.158;22.788;2023-03-01T16:24:32;101760.59;;;8.46;63.50
12213;BME280;6169;44.158;22.788;2023-03-01T16:29:36;101760.44;;;8.89;62.66
12213;BME280;6169;44.158;22.788;2023-03-01T16:34:40;101767.75;;;8.88;62.04
12213;BME280;6169;44.158;22.788;2023-03-01T16:39:42;101769.75;;;9.08;60.95
12213;BME280;6169;44.158;22.788;2023-03-01T16:44:44;101768.03;;;9.07;62.23
12213;BME280;6169;44.158;22.788;2023-03-01T16:49:51;101766.16;;;8.66;62.96
12213;BME280;6169;44.158;22.788;2023-03-01T16:54:54;101768.25;;;8.71;63.13
12213;BME280;6169;44.158;22.788;2023-03-01T16:59:56;101769.06;;;8.71;63.42
12213;BME280;6169;44.158;22.788;2023-03-01T17:05:00;101641.97;;;7.92;63.40
12213;BME280;6169;44.158;22.788;2023-03-01T17:10:04;101765.50;;;8.36;64.15
12213;BME280;6169;44.158;22.788;2023-03-01T17:15:09;101753.38;;;7.89;65.67
12213;BME280;6169;44.158;22.788;2023-03-01T17:20:14;101761.50;;;8.32;65.69
12213;BME280;6169;44.158;22.788;2023-03-01T17:25:16;101763.13;;;8.54;64.80
12213;BME280;6169;44.158;22.788;2023-03-01T17:30:19;101757.75;;;8.11;64.95
12213;BME280;6169;44.158;22.788;2023-03-01T17:35:23;101760.13;;;8.42;64.65
12213;BME280;6169;44.158;22.788;2023-03-01T17:40:26;101757.91;;;8.81;63.56
12213;BME280;6169;44.158;22.788;2023-03-01T17:45:28;101765.34;;;8.72;63.47
12213;BME280;6169;44.158;22.788;2023-03-01T17:50:32;101761.91;;;8.57;63.84
12213;BME280;6169;44.158;22.788;2023-03-01T17:55:39;101754.78;;;8.49;63.97
12213;BME280;6169;44.158;22.788;2023-03-01T18:00:41;101762.22;;;8.40;64.51
12213;BME280;6169;44.158;22.788;2023-03-01T18:05:45;101766.97;;;8.38;64.56
12213;BME280;6169;44.158;22.788;2023-03-01T18:10:47;101765.16;;;8.45;64.92
12213;BME280;6169;44.158;22.788;2023-03-01T18:15:51;101771.44;;;8.46;64.04
12213;BME280;6169;44.158;22.788;2023-03-01T18:20:58;101774.03;;;8.33;63.95
12213;BME280;6169;44.158;22.788;2023-03-01T18:26:02;101774.84;;;8.33;65.97
12213;BME280;6169;44.158;22.788;2023-03-01T18:31:07;101770.34;;;8.40;64.96
12213;BME280;6169;44.158;22.788;2023-03-01T18:36:18;101767.88;;;8.24;65.60
12213;BME280;6169;44.158;22.788;2023-03-01T18:41:22;101782.97;;;8.12;66.07
12213;BME280;6169;44.158;22.788;2023-03-01T18:46:25;101788.00;;;8.36;66.13
12213;BME280;6169;44.158;22.788;2023-03-01T18:51:29;101786.50;;;8.55;64.95
12213;BME280;6169;44.158;22.788;2023-03-01T18:56:32;101760.78;;;8.01;65.65
12213;BME280;6169;44.158;22.788;2023-03-01T19:01:35;101801.09;;;8.11;66.70
12213;BME280;6169;44.158;22.788;2023-03-01T19:06:39;101801.78;;;8.20;66.87
12213;BME280;6169;44.158;22.788;2023-03-01T19:11:41;101802.66;;;8.42;66.13
12213;BME280;6169;44.158;22.788;2023-03-01T19:16:44;101819.66;;;8.29;67.36
12213;BME280;6169;44.158;22.788;2023-03-01T19:21:47;101819.53;;;8.22;67.59
12213;BME280;6169;44.158;22.788;2023-03-01T19:26:50;101827.78;;;8.29;66.95
12213;BME280;6169;44.158;22.788;2023-03-01T19:31:55;101827.25;;;8.40;66.53
12213;BME280;6169;44.158;22.788;2023-03-01T19:36:58;101839.22;;;8.53;65.95
12213;BME280;6169;44.158;22.788;2023-03-01T19:42:01;101823.47;;;8.63;64.77
12213;BME280;6169;44.158;22.788;2023-03-01T19:47:04;101832.97;;;8.52;65.43
12213;BME280;6169;44.158;22.788;2023-03-01T19:52:07;101827.72;;;8.51;65.67
12213;BME280;6169;44.158;22.788;2023-03-01T19:57:10;101828.28;;;8.67;64.76
12213;BME280;6169;44.158;22.788;2023-03-01T20:02:12;101822.22;;;8.65;65.30
12213;BME280;6169;44.158;22.788;2023-03-01T20:07:17;101822.72;;;8.48;65.60
12213;BME280;6169;44.158;22.788;2023-03-01T20:12:19;101824.91;;;8.16;67.18
12213;BME280;6169;44.158;22.788;2023-03-01T20:17:21;101827.59;;;8.37;66.75
12213;BME280;6169;44.158;22.788;2023-03-01T20:22:25;101837.06;;;8.05;68.13
12213;BME280;6169;44.158;22.788;2023-03-01T20:27:28;101838.56;;;8.08;68.89
12213;BME280;6169;44.158;22.788;2023-03-01T20:32:30;101843.03;;;8.15;67.82
12213;BME280;6169;44.158;22.788;2023-03-01T20:37:34;101848.69;;;8.20;68.09
12213;BME280;6169;44.158;22.788;2023-03-01T20:42:37;101852.81;;;8.16;68.46
12213;BME280;6169;44.158;22.788;2023-03-01T20:47:39;101856.31;;;8.32;67.54
12213;BME280;6169;44.158;22.788;2023-03-01T20:52:43;101852.81;;;8.16;68.83
12213;BME280;6169;44.158;22.788;2023-03-01T20:57:45;101844.16;;;7.85;69.61
12213;BME280;6169;44.158;22.788;2023-03-01T21:02:48;101848.56;;;8.07;69.76
12213;BME280;6169;44.158;22.788;2023-03-01T21:07:51;101848.97;;;8.26;68.50
12213;BME280;6169;44.158;22.788;2023-03-01T21:12:54;101849.81;;;8.26;68.28
12213;BME280;6169;44.158;22.788;2023-03-01T21:17:56;101838.06;;;7.83;70.92
12213;BME280;6169;44.158;22.788;2023-03-01T21:23:00;101831.78;;;7.97;69.60
12213;BME280;6169;44.158;22.788;2023-03-01T21:28:02;101832.78;;;7.74;71.08
12213;BME280;6169;44.158;22.788;2023-03-01T21:33:05;101841.22;;;7.86;70.44
12213;BME280;6169;44.158;22.788;2023-03-01T21:38:08;101843.22;;;7.77;71.13
12213;BME280;6169;44.158;22.788;2023-03-01T21:43:11;101834.47;;;7.97;70.55
12213;BME280;6169;44.158;22.788;2023-03-01T21:48:13;101837.72;;;7.71;70.94
12213;BME280;6169;44.158;22.788;2023-03-01T21:53:17;101840.00;;;7.89;70.21
12213;BME280;6169;44.158;22.788;2023-03-01T21:58:19;101839.34;;;8.01;70.03
12213;BME280;6169;44.158;22.788;2023-03-01T22:03:22;101836.19;;;7.98;70.37
12213;BME280;6169;44.158;22.788;2023-03-01T22:08:27;101840.22;;;8.09;69.85
12213;BME280;6169;44.158;22.788;2023-03-01T22:13:29;101833.53;;;8.05;70.09
12213;BME280;6169;44.158;22.788;2023-03-01T22:18:31;101832.88;;;7.81;70.54
12213;BME280;6169;44.158;22.788;2023-03-01T22:23:36;101833.75;;;7.52;72.00
12213;BME280;6169;44.158;22.788;2023-03-01T22:28:39;101831.25;;;7.50;71.25
12213;BME280;6169;44.158;22.788;2023-03-01T22:33:41;101822.88;;;7.82;70.91
12213;BME280;6169;44.158;22.788;2023-03-01T22:38:45;101821.91;;;7.53;71.66
12213;BME280;6169;44.158;22.788;2023-03-01T22:43:47;101821.03;;;8.04;69.67
12213;BME280;6169;44.158;22.788;2023-03-01T22:48:50;101828.38;;;8.10;68.97
12213;BME280;6169;44.158;22.788;2023-03-01T22:53:54;101814.91;;;8.16;68.66
12213;BME280;6169;44.158;22.788;2023-03-01T22:58:57;101820.28;;;7.73;70.77
12213;BME280;6169;44.158;22.788;2023-03-01T23:03:59;101825.19;;;8.06;69.81
12213;BME280;6169;44.158;22.788;2023-03-01T23:09:03;101823.94;;;7.66;72.04
12213;BME280;6169;44.158;22.788;2023-03-01T23:14:06;101827.41;;;7.96;69.78
12213;BME280;6169;44.158;22.788;2023-03-01T23:19:08;101825.69;;;7.73;70.87
12213;BME280;6169;44.158;22.788;2023-03-01T23:24:12;101826.59;;;7.81;70.51
12213;BME280;6169;44.158;22.788;2023-03-01T23:29:15;101816.88;;;7.86;70.89
12213;BME280;6169;44.158;22.788;2023-03-01T23:34:17;101820.50;;;7.93;69.49
12213;BME280;6169;44.158;22.788;2023-03-01T23:39:22;101820.16;;;8.03;69.89
12213;BME280;6169;44.158;22.788;2023-03-01T23:44:24;101824.19;;;8.07;69.67
12213;BME280;6169;44.158;22.788;2023-03-01T23:49:27;101816.13;;;8.14;69.70
12213;BME280;6169;44.158;22.788;2023-03-01T23:54:31;101816.94;;;8.14;68.85
12213;BME280;6169;44.158;22.788;2023-03-01T23:59:33;101817.22;;;7.98;70.37
